sensor_id;sensor_type;location;lat;lon;timestamp;temperature;humidity
66150;DHT22;52952;50.904;20.648;2024-03-08T00:10:17;29;77
66150;DHT22;52952;50.904;20.648;2024-03-08T00:20:12;29;77
66150;DHT22;52952;50.904;20.648;2024-03-08T00:30:07;29;77
66150;DHT22;52952;50.904;20.648;2024-03-08T00:40:15;29;77
66150;DHT22;52952;50.904;20.648;2024-03-08T00:50:15;29;77
66150;DHT22;52952;50.904;20.648;2024-03-08T01:00:03;29;77
66150;DHT22;52952;50.904;20.648;2024-03-08T01:10:13;28;79
66150;DHT22;52952;50.904;20.648;2024-03-08T01:20:15;28;79
66150;DHT22;52952;50.904;20.648;2024-03-08T01:30:02;28;79
66150;DHT22;52952;50.904;20.648;2024-03-08T01:40:09;28;79
66150;DHT22;52952;50.904;20.648;2024-03-08T01:50:16;28;79
66150;DHT22;52952;50.904;20.648;2024-03-08T02:00:15;28;79
66150;DHT22;52952;50.904;20.648;2024-03-08T02:10:13;28;79
66150;DHT22;52952;50.904;20.648;2024-03-08T02:20:10;28;79
66150;DHT22;52952;50.904;20.648;2024-03-08T02:30:13;28;79
66150;DHT22;52952;50.904;20.648;2024-03-08T02:40:03;28;79
66150;DHT22;52952;50.904;20.648;2024-03-08T02:50:09;28;79
66150;DHT22;52952;50.904;20.648;2024-03-08T03:00:12;28;79
66150;DHT22;52952;50.904;20.648;2024-03-08T03:10:17;27;79
66150;DHT22;52952;50.904;20.648;2024-03-08T03:20:37;27;79
66150;DHT22;52952;50.904;20.648;2024-03-08T03:30:33;27;79
66150;DHT22;52952;50.904;20.648;2024-03-08T03:40:16;27;79
66150;DHT22;52952;50.904;20.648;2024-03-08T03:50:05;27;79
66150;DHT22;52952;50.904;20.648;2024-03-08T04:00:20;27;79
66150;DHT22;52952;50.904;20.648;2024-03-08T04:10:18;28;74
66150;DHT22;52952;50.904;20.648;2024-03-08T04:20:18;28;74
66150;DHT22;52952;50.904;20.648;2024-03-08T04:30:05;28;74
66150;DHT22;52952;50.904;20.648;2024-03-08T04:40:10;28;74
66150;DHT22;52952;50.904;20.648;2024-03-08T04:50:13;28;74
66150;DHT22;52952;50.904;20.648;2024-03-08T05:00:17;28;74
66150;DHT22;52952;50.904;20.648;2024-03-08T05:10:12;28;72
66150;DHT22;52952;50.904;20.648;2024-03-08T05:20:03;28;72
66150;DHT22;52952;50.904;20.648;2024-03-08T05:30:04;28;72
66150;DHT22;52952;50.904;20.648;2024-03-08T05:40:11;28;72
66150;DHT22;52952;50.904;20.648;2024-03-08T05:50:09;28;72
66150;DHT22;52952;50.904;20.648;2024-03-08T06:00:20;28;72
66150;DHT22;52952;50.904;20.648;2024-03-08T06:10:05;28;71
66150;DHT22;52952;50.904;20.648;2024-03-08T06:20:05;28;71
66150;DHT22;52952;50.904;20.648;2024-03-08T06:30:06;28;71
66150;DHT22;52952;50.904;20.648;2024-03-08T06:40:14;28;68
66150;DHT22;52952;50.904;20.648;2024-03-08T06:50:02;28;68
66150;DHT22;52952;50.904;20.648;2024-03-08T07:00:03;28;68
66150;DHT22;52952;50.904;20.648;2024-03-08T07:10:20;28;68
66150;DHT22;52952;50.904;20.648;2024-03-08T07:20:22;28;68
66150;DHT22;52952;50.904;20.648;2024-03-08T07:30:13;28;68
66150;DHT22;52952;50.904;20.648;2024-03-08T07:50:10;28;68
66150;DHT22;52952;50.904;20.648;2024-03-08T08:00:25;28;68
66150;DHT22;52952;50.904;20.648;2024-03-08T08:10:16;28;68
66150;DHT22;52952;50.904;20.648;2024-03-08T08:20:09;28;68
66150;DHT22;52952;50.904;20.648;2024-03-08T08:30:20;28;68
66150;DHT22;52952;50.904;20.648;2024-03-08T08:40:15;28;68
66150;DHT22;52952;50.904;20.648;2024-03-08T08:50:12;28;68
66150;DHT22;52952;50.904;20.648;2024-03-08T09:00:21;28;68
66150;DHT22;52952;50.904;20.648;2024-03-08T09:10:05;28;68
66150;DHT22;52952;50.904;20.648;2024-03-08T09:20:09;28;68
66150;DHT22;52952;50.904;20.648;2024-03-08T09:30:08;28;68
66150;DHT22;52952;50.904;20.648;2024-03-08T09:40:20;28;68
66150;DHT22;52952;50.904;20.648;2024-03-08T09:50:18;28;68
66150;DHT22;52952;50.904;20.648;2024-03-08T10:00:31;28;68
66150;DHT22;52952;50.904;20.648;2024-03-08T10:10:13;28;67
66150;DHT22;52952;50.904;20.648;2024-03-08T10:20:25;28;67
66150;DHT22;52952;50.904;20.648;2024-03-08T10:30:25;28;67
66150;DHT22;52952;50.904;20.648;2024-03-08T10:50:26;28;67
66150;DHT22;52952;50.904;20.648;2024-03-08T11:00:11;28;67
66150;DHT22;52952;50.904;20.648;2024-03-08T11:10:20;28;66
66150;DHT22;52952;50.904;20.648;2024-03-08T11:20:09;28;66
66150;DHT22;52952;50.904;20.648;2024-03-08T11:30:04;28;66
66150;DHT22;52952;50.904;20.648;2024-03-08T11:40:15;28;66
66150;DHT22;52952;50.904;20.648;2024-03-08T11:50:13;28;66
66150;DHT22;52952;50.904;20.648;2024-03-08T12:00:03;28;66
66150;DHT22;52952;50.904;20.648;2024-03-08T12:20:21;28;67
66150;DHT22;52952;50.904;20.648;2024-03-08T12:30:27;28;67
66150;DHT22;52952;50.904;20.648;2024-03-08T12:40:31;28;67
66150;DHT22;52952;50.904;20.648;2024-03-08T12:50:17;28;67
66150;DHT22;52952;50.904;20.648;2024-03-08T13:00:19;28;67
66150;DHT22;52952;50.904;20.648;2024-03-08T13:10:09;29;67
66150;DHT22;52952;50.904;20.648;2024-03-08T13:20:24;29;67
66150;DHT22;52952;50.904;20.648;2024-03-08T13:30:06;29;67
66150;DHT22;52952;50.904;20.648;2024-03-08T13:50:03;29;67
66150;DHT22;52952;50.904;20.648;2024-03-08T14:00:02;29;67
66150;DHT22;52952;50.904;20.648;2024-03-08T14:20:18;29;69
66150;DHT22;52952;50.904;20.648;2024-03-08T14:30:14;29;69
66150;DHT22;52952;50.904;20.648;2024-03-08T14:40:09;29;69
66150;DHT22;52952;50.904;20.648;2024-03-08T14:50:08;29;69
66150;DHT22;52952;50.904;20.648;2024-03-08T15:00:02;29;69
66150;DHT22;52952;50.904;20.648;2024-03-08T15:20:05;29;70
66150;DHT22;52952;50.904;20.648;2024-03-08T15:30:23;29;70
66150;DHT22;52952;50.904;20.648;2024-03-08T15:40:24;29;70
66150;DHT22;52952;50.904;20.648;2024-03-08T15:50:12;29;70
66150;DHT22;52952;50.904;20.648;2024-03-08T16:00:37;29;70
66150;DHT22;52952;50.904;20.648;2024-03-08T16:10:12;28;71
66150;DHT22;52952;50.904;20.648;2024-03-08T16:20:12;28;71
66150;DHT22;52952;50.904;20.648;2024-03-08T16:30:10;28;71
66150;DHT22;52952;50.904;20.648;2024-03-08T16:40:08;28;71
66150;DHT22;52952;50.904;20.648;2024-03-08T16:50:18;28;71
66150;DHT22;52952;50.904;20.648;2024-03-08T17:00:30;28;71
66150;DHT22;52952;50.904;20.648;2024-03-08T17:20:02;28;71
66150;DHT22;52952;50.904;20.648;2024-03-08T17:30:33;28;71
66150;DHT22;52952;50.904;20.648;2024-03-08T17:50:07;28;71
66150;DHT22;52952;50.904;20.648;2024-03-08T18:00:12;28;71
66150;DHT22;52952;50.904;20.648;2024-03-08T18:10:02;28;71
66150;DHT22;52952;50.904;20.648;2024-03-08T18:20:07;28;72
66150;DHT22;52952;50.904;20.648;2024-03-08T18:30:20;28;72
66150;DHT22;52952;50.904;20.648;2024-03-08T18:50:20;28;72
66150;DHT22;52952;50.904;20.648;2024-03-08T19:00:15;28;72
66150;DHT22;52952;50.904;20.648;2024-03-08T19:20:07;28;73
66150;DHT22;52952;50.904;20.648;2024-03-08T19:30:17;28;73
66150;DHT22;52952;50.904;20.648;2024-03-08T19:40:33;28;73
66150;DHT22;52952;50.904;20.648;2024-03-08T19:50:02;28;73
66150;DHT22;52952;50.904;20.648;2024-03-08T20:00:21;28;73
66150;DHT22;52952;50.904;20.648;2024-03-08T20:10:12;28;73
66150;DHT22;52952;50.904;20.648;2024-03-08T20:20:15;28;73
66150;DHT22;52952;50.904;20.648;2024-03-08T20:30:04;28;73
66150;DHT22;52952;50.904;20.648;2024-03-08T20:40:15;28;73
66150;DHT22;52952;50.904;20.648;2024-03-08T20:50:26;28;73
66150;DHT22;52952;50.904;20.648;2024-03-08T21:00:42;28;73
66150;DHT22;52952;50.904;20.648;2024-03-08T21:10:15;28;73
66150;DHT22;52952;50.904;20.648;2024-03-08T21:20:11;28;74
66150;DHT22;52952;50.904;20.648;2024-03-08T21:30:10;28;74
66150;DHT22;52952;50.904;20.648;2024-03-08T21:40:07;28;74
66150;DHT22;52952;50.904;20.648;2024-03-08T21:50:16;28;74
66150;DHT22;52952;50.904;20.648;2024-03-08T22:00:18;28;74
66150;DHT22;52952;50.904;20.648;2024-03-08T22:10:09;28;74
66150;DHT22;52952;50.904;20.648;2024-03-08T22:20:31;28;75
66150;DHT22;52952;50.904;20.648;2024-03-08T22:30:17;28;75
66150;DHT22;52952;50.904;20.648;2024-03-08T22:40:14;28;75
66150;DHT22;52952;50.904;20.648;2024-03-08T22:50:09;28;75
66150;DHT22;52952;50.904;20.648;2024-03-08T23:00:56;28;75
66150;DHT22;52952;50.904;20.648;2024-03-08T23:10:08;28;76
66150;DHT22;52952;50.904;20.648;2024-03-08T23:20:02;28;76
66150;DHT22;52952;50.904;20.648;2024-03-08T23:30:14;28;76
66150;DHT22;52952;50.904;20.648;2024-03-08T23:40:17;28;76
66150;DHT22;52952;50.904;20.648;2024-03-08T23:50:25;28;76
